createdAt,value
2023-01-02T00:01:15.361Z,76.75
2023-01-02T00:03:44.433Z,76.92
2023-01-02T00:06:13.089Z,77.54
2023-01-02T00:08:41.189Z,77.86
2023-01-02T00:11:09.192Z,77.83
2023-01-02T00:13:37.149Z,77.94
2023-01-02T00:16:07.458Z,78.11
2023-01-02T00:18:35.850Z,78.43
2023-01-02T00:21:04.669Z,78.89
2023-01-02T00:23:32.945Z,79.16
2023-01-02T00:26:00.990Z,79.13
2023-01-02T00:28:29.486Z,79.54
2023-01-02T00:30:57.945Z,79.87
2023-01-02T00:33:27.302Z,80.21
2023-01-02T00:35:55.304Z,80.41
2023-01-02T00:38:23.247Z,80.52
2023-01-02T00:40:51.217Z,80.75
2023-01-02T00:43:19.250Z,80.74
2023-01-02T00:45:48.788Z,80.57
2023-01-02T00:48:16.812Z,80.48
2023-01-02T00:50:46.504Z,80.15
2023-01-02T00:53:14.494Z,80.35
2023-01-02T00:55:44.486Z,80.15
2023-01-02T00:58:12.632Z,80.23
2023-01-02T01:00:40.985Z,79.85
2023-01-02T01:03:09.075Z,79.87
2023-01-02T01:05:39.732Z,79.81
2023-01-02T01:08:09.462Z,79.79
2023-01-02T01:10:38.321Z,79.80
2023-01-02T01:13:06.737Z,79.70
2023-01-02T01:15:35.001Z,79.81
2023-01-02T01:18:02.980Z,79.65
2023-01-02T01:20:31.127Z,79.57
2023-01-02T01:22:59.262Z,79.57
2023-01-02T01:25:28.605Z,79.54
2023-01-02T01:27:56.738Z,79.37
2023-01-02T01:30:24.907Z,79.10
2023-01-02T01:32:52.969Z,79.24
2023-01-02T01:35:20.951Z,79.18
2023-01-02T01:37:48.936Z,79.21
2023-01-02T01:40:16.981Z,78.96
2023-01-02T01:42:50.179Z,78.96
2023-01-02T01:45:18.767Z,78.69
2023-01-02T01:47:48.757Z,78.57
2023-01-02T01:50:20.562Z,78.06
2023-01-02T01:52:52.127Z,77.59
2023-01-02T01:55:22.723Z,76.77
2023-01-02T01:57:54.917Z,75.96
2023-01-02T02:00:22.901Z,75.46
2023-01-02T02:02:53.313Z,74.98
2023-01-02T02:05:24.210Z,74.63
2023-01-02T02:07:59.833Z,74.04
2023-01-02T02:10:27.882Z,73.80
2023-01-02T02:12:57.233Z,73.40
2023-01-02T02:15:29.342Z,72.98
2023-01-02T02:18:07.027Z,72.72
2023-01-02T02:20:40.582Z,72.66
2023-01-02T02:23:44.408Z,72.23
2023-01-02T02:26:49.765Z,72.24
2023-01-02T02:30:03.779Z,72.00
2023-01-02T02:32:40.525Z,71.91
2023-01-02T02:35:15.863Z,72.04
2023-01-02T02:37:51.407Z,72.00
2023-01-02T02:40:23.726Z,71.64
2023-01-02T02:42:57.734Z,71.58
2023-01-02T02:45:32.384Z,71.75
2023-01-02T02:48:03.848Z,71.79
2023-01-02T02:50:35.387Z,71.75
2023-01-02T02:53:06.747Z,71.81
2023-01-02T02:55:39.614Z,71.74
2023-01-02T02:58:08.070Z,71.76
2023-01-02T03:00:37.718Z,71.70
2023-01-02T03:03:15.951Z,71.57
2023-01-02T03:05:44.809Z,71.80
2023-01-02T03:08:17.927Z,71.82
2023-01-02T03:10:48.330Z,72.07
2023-01-02T03:13:23.804Z,71.83
2023-01-02T03:16:01.055Z,71.90
2023-01-02T03:18:36.886Z,71.85
2023-01-02T03:21:08.552Z,71.94
2023-01-02T03:23:40.489Z,71.74
2023-01-02T03:26:08.508Z,71.72
2023-01-02T03:28:38.859Z,71.82
2023-01-02T03:31:10.517Z,71.79
2023-01-02T03:33:41.707Z,71.78
2023-01-02T03:36:11.602Z,71.81
2023-01-02T03:38:43.217Z,71.75
2023-01-02T03:41:14.993Z,72.11
2023-01-02T03:43:45.289Z,72.07
2023-01-02T03:46:19.175Z,71.82
2023-01-02T03:48:50.764Z,71.74
2023-01-02T03:51:18.856Z,71.66
2023-01-02T03:53:49.619Z,71.76
2023-01-02T03:56:24.423Z,71.68
2023-01-02T03:58:55.856Z,71.97
2023-01-02T04:01:33.867Z,71.85
2023-01-02T04:04:06.351Z,71.78
2023-01-02T04:06:36.470Z,71.91
2023-01-02T04:09:07.228Z,71.97
2023-01-02T04:11:36.809Z,71.62
2023-01-02T04:14:10.691Z,71.84
2023-01-02T04:16:41.566Z,71.86
2023-01-02T04:19:13.492Z,71.75
2023-01-02T04:21:42.367Z,71.65
2023-01-02T04:24:12.804Z,71.59
2023-01-02T04:26:43.950Z,71.69
2023-01-02T04:29:12.426Z,71.71
2023-01-02T04:31:44.948Z,71.46
2023-01-02T04:34:15.590Z,71.50
2023-01-02T04:36:43.734Z,71.19
2023-01-02T04:39:11.790Z,71.13
2023-01-02T04:41:40.199Z,70.88
2023-01-02T04:44:08.311Z,70.70
2023-01-02T04:46:36.319Z,70.77
2023-01-02T04:49:05.719Z,70.66
2023-01-02T04:51:33.714Z,70.52
2023-01-02T04:54:01.884Z,70.62
2023-01-02T04:56:29.858Z,70.55
2023-01-02T04:58:57.870Z,70.20
2023-01-02T05:01:25.920Z,70.08
2023-01-02T05:03:54.010Z,69.99
2023-01-02T05:06:23.448Z,70.11
2023-01-02T05:08:51.391Z,69.95
2023-01-02T05:11:20.857Z,70.01
2023-01-02T05:13:48.862Z,70.01
2023-01-02T05:16:16.956Z,69.97
2023-01-02T05:18:45.043Z,69.85
2023-01-02T05:21:28.110Z,69.68
2023-01-02T05:23:59.403Z,69.72
2023-01-02T05:26:27.576Z,69.89
2023-01-02T05:28:56.160Z,69.76
2023-01-02T05:31:24.299Z,69.70
2023-01-02T05:33:53.423Z,69.52
2023-01-02T05:36:22.752Z,69.26
2023-01-02T05:38:51.270Z,69.51
2023-01-02T05:41:21.815Z,69.38
2023-01-02T05:43:50.050Z,69.35
2023-01-02T05:46:19.558Z,69.40
2023-01-02T05:48:47.884Z,69.34
2023-01-02T05:51:17.388Z,69.19
2023-01-02T05:53:45.761Z,68.88
2023-01-02T05:56:15.306Z,69.06
2023-01-02T05:58:46.736Z,68.72
2023-01-02T06:01:16.373Z,69.23
2023-01-02T06:03:45.743Z,69.68
2023-01-02T06:06:14.655Z,70.00
2023-01-02T06:08:42.835Z,68.97
2023-01-02T06:11:11.043Z,69.65
2023-01-02T06:13:39.446Z,70.05
2023-01-02T06:16:10.280Z,69.00
2023-01-02T06:18:39.421Z,69.28
2023-01-02T06:21:08.976Z,67.40
2023-01-02T06:23:37.197Z,66.98
2023-01-02T06:26:06.897Z,67.57
2023-01-02T06:28:34.906Z,67.16
2023-01-02T06:31:03.841Z,67.50
2023-01-02T06:33:33.152Z,66.54
2023-01-02T06:36:02.050Z,67.33
2023-01-02T06:38:30.223Z,66.35
2023-01-02T06:40:59.582Z,65.54
2023-01-02T06:43:28.751Z,65.63
2023-01-02T06:45:58.598Z,65.57
2023-01-02T06:48:26.790Z,65.42
2023-01-02T06:50:56.076Z,65.33
2023-01-02T06:53:24.077Z,65.44
2023-01-02T06:55:52.837Z,65.52
2023-01-02T06:58:21.272Z,65.47
2023-01-02T07:00:49.874Z,65.68
2023-01-02T07:03:18.922Z,65.79
2023-01-02T07:05:47.317Z,65.33
2023-01-02T07:08:16.665Z,65.54
2023-01-02T07:10:49.353Z,65.42
2023-01-02T07:13:20.589Z,64.96
2023-01-02T07:15:48.691Z,65.29
2023-01-02T07:18:16.725Z,64.68
2023-01-02T07:20:44.814Z,64.64
2023-01-02T07:23:12.823Z,64.58
2023-01-02T07:25:44.556Z,64.84
2023-01-02T07:28:12.823Z,65.33
2023-01-02T07:30:40.992Z,65.65
2023-01-02T07:33:08.948Z,65.80
2023-01-02T07:35:37.138Z,66.11
2023-01-02T07:38:05.118Z,65.74
2023-01-02T07:40:33.491Z,65.49
2023-01-02T07:43:02.951Z,65.44
2023-01-02T07:45:30.991Z,65.08
2023-01-02T07:47:59.317Z,65.04
2023-01-02T07:50:27.263Z,64.80
2023-01-02T07:52:55.258Z,65.17
2023-01-02T07:55:23.239Z,64.82
2023-01-02T07:57:51.231Z,64.68
2023-01-02T08:00:20.935Z,64.26
2023-01-02T08:02:50.081Z,64.20
2023-01-02T08:05:18.208Z,63.97
2023-01-02T08:07:46.240Z,64.31
2023-01-02T08:10:15.136Z,64.07
2023-01-02T08:12:43.717Z,63.87
2023-01-02T08:15:12.687Z,63.40
2023-01-02T08:17:42.056Z,63.15
2023-01-02T08:20:11.618Z,63.08
2023-01-02T08:22:40.148Z,63.41
2023-01-02T08:25:10.342Z,62.87
2023-01-02T08:27:38.457Z,62.69
2023-01-02T08:30:07.689Z,62.47
2023-01-02T08:32:37.075Z,62.19
2023-01-02T08:35:08.102Z,62.27
2023-01-02T08:37:36.208Z,62.18
2023-01-02T08:40:04.859Z,62.13
2023-01-02T08:42:32.849Z,62.12
2023-01-02T08:45:01.120Z,61.79
2023-01-02T08:47:29.076Z,61.53
2023-01-02T08:49:57.085Z,61.74
2023-01-02T08:52:26.363Z,61.45
2023-01-02T08:54:54.318Z,61.19
2023-01-02T08:57:22.325Z,61.12
2023-01-02T08:59:51.083Z,61.34
2023-01-02T09:02:19.512Z,61.47
2023-01-02T09:04:47.681Z,61.45
2023-01-02T09:07:15.775Z,61.01
2023-01-02T09:09:45.107Z,61.47
2023-01-02T09:12:13.075Z,61.43
2023-01-02T09:14:41.068Z,61.69
2023-01-02T09:17:09.310Z,61.45
2023-01-02T09:19:37.435Z,61.14
2023-01-02T09:22:05.657Z,61.30
2023-01-02T09:24:33.655Z,61.20
2023-01-02T09:27:02.975Z,60.87
2023-01-02T09:29:30.963Z,60.72
2023-01-02T09:31:58.944Z,61.52
2023-01-02T09:34:26.934Z,60.62
2023-01-02T09:36:54.934Z,60.56
2023-01-02T09:39:28.559Z,60.50
2023-01-02T09:42:01.868Z,60.24
2023-01-02T09:44:36.898Z,60.15
2023-01-02T09:47:07.574Z,60.02
2023-01-02T09:49:40.161Z,60.18
2023-01-02T09:52:08.330Z,59.95
2023-01-02T09:54:36.405Z,59.79
2023-01-02T09:57:12.360Z,60.16
2023-01-02T09:59:47.457Z,60.07
2023-01-02T10:02:25.616Z,59.79
2023-01-02T10:05:05.129Z,60.08
2023-01-02T10:07:37.766Z,60.23
2023-01-02T10:10:09.886Z,60.21
2023-01-02T10:12:39.833Z,60.31
2023-01-02T10:15:14.221Z,60.07
2023-01-02T10:17:53.409Z,59.57
2023-01-02T10:20:27.585Z,59.80
2023-01-02T10:22:58.775Z,60.10
2023-01-02T10:25:31.837Z,59.51
2023-01-02T10:28:03.222Z,59.71
2023-01-02T10:30:37.403Z,59.47
2023-01-02T10:33:10.889Z,59.74
2023-01-02T10:35:41.238Z,59.57
2023-01-02T10:38:11.992Z,59.54
2023-01-02T10:40:42.483Z,59.46
2023-01-02T10:43:11.795Z,59.57
2023-01-02T10:45:41.323Z,59.44
2023-01-02T10:48:10.902Z,59.59
2023-01-02T10:50:42.475Z,59.47
2023-01-02T10:53:20.906Z,59.66
2023-01-02T10:55:49.164Z,59.89
2023-01-02T10:58:22.139Z,60.59
2023-01-02T11:00:52.113Z,61.13
2023-01-02T11:03:23.513Z,61.11
2023-01-02T11:05:54.002Z,62.19
2023-01-02T11:08:24.108Z,63.49
2023-01-02T11:10:52.707Z,64.45
2023-01-02T11:13:22.353Z,64.95
2023-01-02T11:15:53.848Z,65.50
2023-01-02T11:18:24.528Z,65.73
2023-01-02T11:20:54.409Z,65.71
2023-01-02T11:23:24.688Z,66.02
2023-01-02T11:25:53.894Z,65.29
2023-01-02T11:28:23.692Z,64.24
2023-01-02T11:30:54.820Z,64.09
2023-01-02T11:33:28.631Z,63.81
2023-01-02T11:35:58.064Z,63.87
2023-01-02T11:38:29.878Z,63.67
2023-01-02T11:41:01.176Z,63.64
2023-01-02T11:43:48.544Z,63.56
2023-01-02T11:46:33.414Z,63.84
2023-01-02T11:49:05.909Z,64.13
2023-01-02T11:51:35.683Z,64.63
2023-01-02T11:54:06.220Z,64.68
2023-01-02T11:56:36.037Z,64.26
2023-01-02T11:59:06.358Z,63.96
2023-01-02T12:01:47.437Z,64.12
2023-01-02T12:04:15.657Z,63.69
2023-01-02T12:06:55.845Z,63.48
2023-01-02T12:09:28.057Z,63.63
2023-01-02T12:12:08.289Z,63.72
2023-01-02T12:14:54.168Z,64.64
2023-01-02T12:17:30.367Z,64.23
2023-01-02T12:20:07.437Z,64.79
2023-01-02T12:22:53.679Z,63.24
2023-01-02T12:25:34.384Z,63.28
2023-01-02T12:28:06.366Z,62.47
2023-01-02T12:30:36.318Z,62.56
2023-01-02T12:33:18.249Z,61.89
2023-01-02T12:35:56.809Z,61.58
2023-01-02T12:38:33.190Z,62.19
2023-01-02T12:41:12.007Z,63.00
2023-01-02T12:44:03.647Z,62.68
2023-01-02T12:46:45.051Z,62.07
2023-01-02T12:49:28.985Z,62.55
2023-01-02T12:52:01.437Z,62.16
2023-01-02T12:54:36.375Z,61.97
2023-01-02T12:57:09.881Z,62.33
2023-01-02T12:59:58.619Z,61.90
2023-01-02T13:02:41.610Z,61.94
2023-01-02T13:05:14.476Z,62.03
2023-01-02T13:07:46.766Z,61.96
2023-01-02T13:10:17.260Z,61.74
2023-01-02T13:12:45.509Z,61.92
2023-01-02T13:15:19.306Z,61.84
2023-01-02T13:17:56.846Z,61.59
2023-01-02T13:20:33.343Z,61.60
2023-01-02T13:23:05.699Z,61.89
2023-01-02T13:25:33.826Z,61.90
2023-01-02T13:28:05.891Z,61.91
2023-01-02T13:30:45.052Z,62.14
2023-01-02T13:33:21.873Z,62.12
2023-01-02T13:35:51.603Z,62.01
2023-01-02T13:38:20.206Z,62.19
2023-01-02T13:40:55.937Z,62.33
2023-01-02T13:43:27.186Z,62.66
2023-01-02T13:45:56.833Z,62.59
2023-01-02T13:48:30.971Z,62.64
2023-01-02T13:51:01.953Z,62.92
2023-01-02T13:53:40.983Z,62.87
2023-01-02T13:56:11.537Z,62.95
2023-01-02T13:58:48.241Z,63.01
2023-01-02T14:01:28.758Z,63.01
2023-01-02T14:04:29.424Z,62.97
2023-01-02T14:07:39.799Z,62.96
2023-01-02T14:10:19.393Z,63.02
2023-01-02T14:12:53.423Z,63.13
2023-01-02T14:15:24.980Z,63.37
2023-01-02T14:18:00.333Z,63.31
2023-01-02T14:20:29.393Z,63.21
2023-01-02T14:23:01.886Z,63.21
2023-01-02T14:25:30.332Z,63.33
2023-01-02T14:28:00.108Z,63.51
2023-01-02T14:30:33.957Z,63.58
2023-01-02T14:33:02.312Z,63.56
2023-01-02T14:35:33.146Z,63.51
2023-01-02T14:38:11.821Z,63.47
2023-01-02T14:40:41.479Z,63.43
2023-01-02T14:43:28.902Z,63.55
2023-01-02T14:46:00.392Z,63.55
2023-01-02T14:48:33.596Z,63.79
2023-01-02T14:51:03.701Z,64.61
2023-01-02T14:53:36.993Z,64.19
2023-01-02T14:56:09.129Z,64.32
2023-01-02T14:58:40.249Z,65.04
2023-01-02T15:01:09.138Z,64.71
2023-01-02T15:03:46.742Z,65.05
2023-01-02T15:06:20.743Z,65.20
2023-01-02T15:08:51.888Z,65.80
2023-01-02T15:11:36.372Z,66.40
2023-01-02T15:14:06.329Z,66.64
2023-01-02T15:16:41.739Z,67.43
2023-01-02T15:19:16.673Z,67.02
2023-01-02T15:21:44.729Z,66.79
2023-01-02T15:24:20.105Z,67.08
2023-01-02T15:26:48.137Z,67.05
2023-01-02T15:29:25.757Z,67.27
2023-01-02T15:31:55.805Z,67.62
2023-01-02T15:34:28.934Z,67.43
2023-01-02T15:36:58.467Z,68.17
2023-01-02T15:39:33.242Z,68.24
2023-01-02T15:42:06.596Z,68.87
2023-01-02T15:44:57.695Z,69.07
2023-01-02T15:47:28.479Z,69.03
2023-01-02T15:49:57.468Z,69.49
2023-01-02T15:52:27.521Z,69.22
2023-01-02T15:54:57.489Z,69.95
2023-01-02T15:57:31.078Z,70.15
2023-01-02T15:59:59.384Z,70.30
2023-01-02T16:02:36.658Z,70.56
2023-01-02T16:05:10.475Z,71.16
2023-01-02T16:07:40.290Z,71.11
2023-01-02T16:10:19.763Z,71.67
2023-01-02T16:12:52.415Z,72.20
2023-01-02T16:15:22.934Z,72.66
2023-01-02T16:17:51.483Z,72.81
2023-01-02T16:20:20.966Z,73.24
2023-01-02T16:22:51.894Z,73.36
2023-01-02T16:25:22.736Z,73.53
2023-01-02T16:27:53.944Z,73.78
2023-01-02T16:30:32.643Z,74.03
2023-01-02T16:33:02.274Z,73.93
2023-01-02T16:35:32.530Z,74.25
2023-01-02T16:38:01.180Z,74.31
2023-01-02T16:41:01.222Z,74.75
2023-01-02T16:43:33.409Z,75.83
2023-01-02T16:46:05.098Z,77.45
2023-01-02T16:48:33.817Z,78.08
2023-01-02T16:51:01.821Z,78.68
2023-01-02T16:53:32.013Z,78.87
2023-01-02T16:56:01.525Z,79.58
2023-01-02T16:58:30.108Z,80.21
2023-01-02T17:00:58.428Z,80.33
2023-01-02T17:03:28.269Z,80.96
2023-01-02T17:06:03.929Z,80.96
2023-01-02T17:08:32.393Z,81.26
2023-01-02T17:11:02.089Z,81.10
2023-01-02T17:13:30.526Z,81.48
2023-01-02T17:15:59.382Z,81.46
2023-01-02T17:18:27.388Z,81.43
2023-01-02T17:20:55.411Z,81.24
2023-01-02T17:23:23.457Z,81.28
2023-01-02T17:25:51.456Z,81.39
2023-01-02T17:28:21.102Z,81.60
2023-01-02T17:30:50.163Z,81.52
2023-01-02T17:33:18.521Z,81.47
2023-01-02T17:35:46.865Z,81.46
2023-01-02T17:38:15.374Z,81.63
2023-01-02T17:40:43.351Z,81.45
2023-01-02T17:43:11.359Z,81.15
2023-01-02T17:45:41.924Z,81.33
2023-01-02T17:48:12.360Z,81.27
2023-01-02T17:50:41.583Z,81.09
2023-01-02T17:53:09.832Z,80.90
2023-01-02T17:55:37.808Z,80.78
2023-01-02T17:58:05.895Z,80.68
2023-01-02T18:00:33.897Z,80.66
2023-01-02T18:03:03.282Z,80.56
2023-01-02T18:05:32.867Z,80.95
2023-01-02T18:08:00.851Z,80.59
2023-01-02T18:10:32.924Z,80.51
2023-01-02T18:13:01.300Z,80.16
2023-01-02T18:15:29.249Z,79.78
2023-01-02T18:17:57.303Z,79.61
2023-01-02T18:20:26.630Z,79.41
2023-01-02T18:22:54.680Z,79.72
2023-01-02T18:25:25.202Z,79.55
2023-01-02T18:27:55.834Z,79.24
2023-01-02T18:30:25.316Z,79.44
2023-01-02T18:33:00.894Z,79.40
2023-01-02T18:38:30.126Z,79.19
2023-01-02T18:40:58.633Z,78.68
2023-01-02T18:43:28.999Z,79.62
2023-01-02T18:45:59.778Z,80.13
2023-01-02T18:48:27.916Z,79.98
2023-01-02T18:51:01.847Z,79.78
2023-01-02T18:53:31.769Z,79.16
2023-01-02T18:56:02.126Z,78.66
2023-01-02T18:58:41.086Z,77.29
2023-01-02T19:01:25.119Z,77.35
2023-01-02T19:03:58.095Z,77.21
2023-01-02T19:06:28.903Z,77.62
2023-01-02T19:09:03.294Z,77.90
2023-01-02T19:11:51.746Z,77.99
2023-01-02T19:14:24.807Z,78.36
2023-01-02T19:16:57.590Z,78.70
2023-01-02T19:19:26.952Z,78.78
2023-01-02T19:21:56.331Z,79.10
2023-01-02T19:24:25.769Z,79.31
2023-01-02T19:26:57.194Z,79.54
2023-01-02T19:29:31.484Z,80.13
2023-01-02T19:32:05.085Z,80.75
2023-01-02T19:34:42.220Z,81.09
2023-01-02T19:37:32.632Z,81.50
2023-01-02T19:40:02.886Z,81.78
2023-01-02T19:42:32.097Z,81.89
2023-01-02T19:45:01.348Z,82.10
2023-01-02T19:47:32.252Z,82.35
2023-01-02T19:50:00.933Z,82.14
2023-01-02T19:52:30.820Z,82.42
2023-01-02T19:54:59.159Z,82.68
2023-01-02T19:57:30.046Z,82.80
2023-01-02T19:59:59.077Z,82.89
2023-01-02T20:02:28.144Z,83.12
2023-01-02T20:04:56.313Z,83.34
2023-01-02T20:07:25.822Z,83.69
2023-01-02T20:09:55.340Z,83.89
2023-01-02T20:12:34.721Z,83.80
2023-01-02T20:15:06.010Z,83.85
2023-01-02T20:17:34.791Z,83.72
2023-01-02T20:20:03.415Z,83.65
2023-01-02T20:22:34.355Z,83.71
2023-01-02T20:25:04.164Z,83.79
2023-01-02T20:27:32.300Z,83.67
2023-01-02T20:30:00.529Z,83.81
2023-01-02T20:32:28.762Z,83.59
2023-01-02T20:34:56.757Z,83.79
2023-01-02T20:37:24.836Z,83.93
2023-01-02T20:39:53.911Z,83.71
2023-01-02T20:42:24.035Z,83.65
2023-01-02T20:44:52.429Z,83.72
2023-01-02T20:47:20.616Z,83.97
2023-01-02T20:49:49.019Z,83.90
2023-01-02T20:52:18.994Z,83.77
2023-01-02T20:54:47.118Z,83.82
2023-01-02T20:57:15.336Z,83.81
2023-01-02T20:59:44.940Z,83.59
2023-01-02T21:02:13.219Z,83.25
2023-01-02T21:04:41.347Z,83.30
2023-01-02T21:07:09.771Z,83.29
2023-01-02T21:09:37.824Z,83.04
2023-01-02T21:12:25.968Z,83.06
2023-01-02T21:14:55.384Z,82.92
2023-01-02T21:17:23.539Z,82.75
2023-01-02T21:19:51.560Z,82.82
2023-01-02T21:22:19.601Z,83.08
2023-01-02T21:24:47.890Z,83.32
2023-01-02T21:27:19.401Z,83.50
2023-01-02T21:29:47.395Z,83.90
2023-01-02T21:32:16.696Z,84.03
2023-01-02T21:34:44.916Z,84.42
2023-01-02T21:37:13.420Z,84.52
2023-01-02T21:39:41.489Z,84.72
2023-01-02T21:42:18.139Z,84.93
2023-01-02T21:44:47.586Z,85.22
2023-01-02T21:47:18.041Z,85.45
2023-01-02T21:49:46.115Z,85.83
2023-01-02T21:52:14.336Z,85.80
2023-01-02T21:54:42.431Z,85.72
2023-01-02T21:57:11.066Z,85.88
2023-01-02T21:59:39.158Z,86.00
2023-01-02T22:02:07.304Z,86.00
2023-01-02T22:04:37.179Z,86.09
2023-01-02T22:09:53.295Z,86.22
2023-01-02T22:12:21.270Z,86.39
2023-01-02T22:14:49.335Z,86.40
2023-01-02T22:17:17.334Z,86.63
2023-01-02T22:19:46.675Z,86.41
2023-01-02T22:22:15.242Z,86.43
2023-01-02T22:24:44.894Z,86.43
2023-01-02T22:27:14.483Z,86.50
2023-01-02T22:32:33.611Z,86.51
2023-01-02T22:35:05.166Z,86.48
2023-01-02T22:37:33.267Z,86.40
2023-01-02T22:40:02.072Z,86.42
2023-01-02T22:43:00.315Z,86.51
2023-01-02T22:45:32.658Z,86.55
2023-01-02T22:48:03.940Z,86.60
2023-01-02T22:50:39.161Z,86.66
2023-01-02T22:53:08.200Z,86.86
2023-01-02T22:55:36.968Z,87.05
2023-01-02T22:58:05.685Z,87.06
2023-01-02T23:00:33.685Z,86.97
2023-01-02T23:03:01.727Z,86.81
2023-01-02T23:05:29.727Z,86.62
2023-01-02T23:07:59.058Z,86.54
2023-01-02T23:10:27.003Z,86.53
2023-01-02T23:12:54.979Z,86.65
2023-01-02T23:15:22.994Z,86.80
2023-01-02T23:18:08.564Z,86.82
2023-01-02T23:20:36.555Z,86.84
2023-01-02T23:23:06.549Z,86.79
2023-01-02T23:25:34.523Z,86.67
2023-01-02T23:28:02.757Z,86.59
2023-01-02T23:30:30.785Z,86.51
2023-01-02T23:32:58.754Z,86.38
2023-01-02T23:35:26.730Z,86.28
2023-01-02T23:37:54.682Z,86.15
2023-01-02T23:40:23.915Z,86.05
2023-01-02T23:42:51.884Z,85.92
2023-01-02T23:45:19.866Z,85.83
2023-01-02T23:47:47.821Z,85.65
2023-01-02T23:50:16.324Z,85.38
2023-01-02T23:52:44.299Z,85.43
2023-01-02T23:55:12.307Z,85.25
2023-01-02T23:57:41.676Z,85.24
